sensor_id;sensor_type;location;lat;lon;timestamp;temperature;humidity
20957;DHT22;10637;47.970;7.830;2023-04-03T00:01:58;7.90;99.90
20957;DHT22;10637;47.970;7.830;2023-04-03T00:07:00;7.70;99.90
20957;DHT22;10637;47.970;7.830;2023-04-03T00:12:02;7.60;99.90
20957;DHT22;10637;47.970;7.830;2023-04-03T00:17:04;7.60;99.90
20957;DHT22;10637;47.970;7.830;2023-04-03T00:22:06;7.70;99.90
20957;DHT22;10637;47.970;7.830;2023-04-03T00:27:08;7.40;99.90
20957;DHT22;10637;47.970;7.830;2023-04-03T00:32:09;7.40;99.90
20957;DHT22;10637;47.970;7.830;2023-04-03T00:37:11;7.40;99.90
20957;DHT22;10637;47.970;7.830;2023-04-03T00:42:13;7.40;99.90
20957;DHT22;10637;47.970;7.830;2023-04-03T00:47:17;7.40;99.90
20957;DHT22;10637;47.970;7.830;2023-04-03T00:52:22;7.40;99.90
20957;DHT22;10637;47.970;7.830;2023-04-03T00:57:25;7.50;99.90
20957;DHT22;10637;47.970;7.830;2023-04-03T01:02:27;7.50;99.90
20957;DHT22;10637;47.970;7.830;2023-04-03T01:07:30;7.50;99.90
20957;DHT22;10637;47.970;7.830;2023-04-03T01:12:35;7.40;99.90
20957;DHT22;10637;47.970;7.830;2023-04-03T01:17:40;7.30;99.90
20957;DHT22;10637;47.970;7.830;2023-04-03T01:28:04;7.30;99.90
20957;DHT22;10637;47.970;7.830;2023-04-03T01:33:06;7.30;99.90
20957;DHT22;10637;47.970;7.830;2023-04-03T01:38:08;7.40;99.90
20957;DHT22;10637;47.970;7.830;2023-04-03T01:43:10;7.40;99.90
20957;DHT22;10637;47.970;7.830;2023-04-03T01:48:13;7.40;99.90
20957;DHT22;10637;47.970;7.830;2023-04-03T01:53:14;7.40;99.90
20957;DHT22;10637;47.970;7.830;2023-04-03T01:58:16;7.50;99.90
20957;DHT22;10637;47.970;7.830;2023-04-03T02:03:18;7.40;99.90
20957;DHT22;10637;47.970;7.830;2023-04-03T02:08:20;7.40;99.90
20957;DHT22;10637;47.970;7.830;2023-04-03T02:13:22;7.40;99.90
20957;DHT22;10637;47.970;7.830;2023-04-03T02:18:24;7.30;99.90
20957;DHT22;10637;47.970;7.830;2023-04-03T02:23:26;7.30;99.90
20957;DHT22;10637;47.970;7.830;2023-04-03T02:28:28;7.20;99.90
20957;DHT22;10637;47.970;7.830;2023-04-03T02:33:30;7.10;99.90
20957;DHT22;10637;47.970;7.830;2023-04-03T02:38:32;7.10;99.90
20957;DHT22;10637;47.970;7.830;2023-04-03T02:43:34;7.00;99.90
20957;DHT22;10637;47.970;7.830;2023-04-03T02:48:36;6.90;99.90
20957;DHT22;10637;47.970;7.830;2023-04-03T02:53:38;6.90;99.90
20957;DHT22;10637;47.970;7.830;2023-04-03T02:58:40;6.90;99.90
20957;DHT22;10637;47.970;7.830;2023-04-03T03:03:42;6.90;99.90
20957;DHT22;10637;47.970;7.830;2023-04-03T03:08:44;6.80;99.90
20957;DHT22;10637;47.970;7.830;2023-04-03T03:13:46;6.80;99.90
20957;DHT22;10637;47.970;7.830;2023-04-03T03:18:47;6.80;99.90
20957;DHT22;10637;47.970;7.830;2023-04-03T03:23:49;6.80;99.90
20957;DHT22;10637;47.970;7.830;2023-04-03T03:28:51;6.60;99.90
20957;DHT22;10637;47.970;7.830;2023-04-03T03:33:53;6.50;99.90
20957;DHT22;10637;47.970;7.830;2023-04-03T03:38:55;6.50;99.90
20957;DHT22;10637;47.970;7.830;2023-04-03T03:43:57;6.50;99.90
20957;DHT22;10637;47.970;7.830;2023-04-03T03:48:59;6.50;99.90
20957;DHT22;10637;47.970;7.830;2023-04-03T03:54:01;6.40;99.90
20957;DHT22;10637;47.970;7.830;2023-04-03T03:59:02;6.50;99.90
20957;DHT22;10637;47.970;7.830;2023-04-03T04:04:04;6.40;99.90
20957;DHT22;10637;47.970;7.830;2023-04-03T04:09:06;6.50;99.90
20957;DHT22;10637;47.970;7.830;2023-04-03T04:14:08;6.60;99.90
20957;DHT22;10637;47.970;7.830;2023-04-03T04:19:12;6.70;99.90
20957;DHT22;10637;47.970;7.830;2023-04-03T04:24:13;6.70;99.90
20957;DHT22;10637;47.970;7.830;2023-04-03T04:29:16;6.70;99.90
20957;DHT22;10637;47.970;7.830;2023-04-03T04:34:17;6.80;99.90
20957;DHT22;10637;47.970;7.830;2023-04-03T04:39:19;6.70;99.90
20957;DHT22;10637;47.970;7.830;2023-04-03T04:44:21;6.70;99.90
20957;DHT22;10637;47.970;7.830;2023-04-03T04:49:23;6.70;99.90
20957;DHT22;10637;47.970;7.830;2023-04-03T04:54:24;6.70;99.90
20957;DHT22;10637;47.970;7.830;2023-04-03T04:59:26;6.70;99.90
20957;DHT22;10637;47.970;7.830;2023-04-03T05:04:28;6.70;99.90
20957;DHT22;10637;47.970;7.830;2023-04-03T05:09:30;6.70;99.90
20957;DHT22;10637;47.970;7.830;2023-04-03T05:14:32;6.70;99.90
20957;DHT22;10637;47.970;7.830;2023-04-03T05:19:33;6.70;99.90
20957;DHT22;10637;47.970;7.830;2023-04-03T05:24:35;6.70;99.90
20957;DHT22;10637;47.970;7.830;2023-04-03T05:29:37;6.70;99.90
20957;DHT22;10637;47.970;7.830;2023-04-03T05:34:39;6.70;99.90
20957;DHT22;10637;47.970;7.830;2023-04-03T05:39:40;6.80;99.90
20957;DHT22;10637;47.970;7.830;2023-04-03T05:44:42;6.80;99.90
20957;DHT22;10637;47.970;7.830;2023-04-03T05:49:45;6.80;99.90
20957;DHT22;10637;47.970;7.830;2023-04-03T05:54:47;6.90;99.90
20957;DHT22;10637;47.970;7.830;2023-04-03T05:59:49;7.00;99.90
20957;DHT22;10637;47.970;7.830;2023-04-03T06:04:52;6.90;99.90
20957;DHT22;10637;47.970;7.830;2023-04-03T06:09:55;7.00;99.90
20957;DHT22;10637;47.970;7.830;2023-04-03T06:14:57;7.10;99.90
20957;DHT22;10637;47.970;7.830;2023-04-03T06:19:59;7.20;99.90
20957;DHT22;10637;47.970;7.830;2023-04-03T06:25:01;7.30;99.90
20957;DHT22;10637;47.970;7.830;2023-04-03T06:30:05;7.40;99.90
20957;DHT22;10637;47.970;7.830;2023-04-03T06:35:08;7.30;99.90
20957;DHT22;10637;47.970;7.830;2023-04-03T06:40:21;7.50;99.90
20957;DHT22;10637;47.970;7.830;2023-04-03T06:45:23;7.60;99.90
20957;DHT22;10637;47.970;7.830;2023-04-03T06:50:27;7.50;99.90
20957;DHT22;10637;47.970;7.830;2023-04-03T06:55:28;7.70;99.90
20957;DHT22;10637;47.970;7.830;2023-04-03T07:00:30;7.80;99.90
20957;DHT22;10637;47.970;7.830;2023-04-03T07:05:32;8.00;99.90
20957;DHT22;10637;47.970;7.830;2023-04-03T07:10:34;8.20;99.90
20957;DHT22;10637;47.970;7.830;2023-04-03T07:15:36;8.30;99.90
20957;DHT22;10637;47.970;7.830;2023-04-03T07:20:38;8.30;99.90
20957;DHT22;10637;47.970;7.830;2023-04-03T07:25:45;8.00;99.90
20957;DHT22;10637;47.970;7.830;2023-04-03T07:30:50;8.30;99.90
20957;DHT22;10637;47.970;7.830;2023-04-03T07:35:52;8.30;99.90
20957;DHT22;10637;47.970;7.830;2023-04-03T07:40:54;8.60;99.90
20957;DHT22;10637;47.970;7.830;2023-04-03T07:45:56;7.90;99.90
20957;DHT22;10637;47.970;7.830;2023-04-03T07:51:02;8.30;99.90
20957;DHT22;10637;47.970;7.830;2023-04-03T07:56:05;8.60;99.90
20957;DHT22;10637;47.970;7.830;2023-04-03T08:01:07;8.40;99.90
20957;DHT22;10637;47.970;7.830;2023-04-03T08:06:09;8.90;99.90
20957;DHT22;10637;47.970;7.830;2023-04-03T08:11:16;9.10;99.90
20957;DHT22;10637;47.970;7.830;2023-04-03T08:16:22;9.40;99.90
20957;DHT22;10637;47.970;7.830;2023-04-03T08:21:25;9.00;99.90
20957;DHT22;10637;47.970;7.830;2023-04-03T08:26:27;9.00;99.90
20957;DHT22;10637;47.970;7.830;2023-04-03T08:31:29;8.70;99.90
20957;DHT22;10637;47.970;7.830;2023-04-03T08:36:31;8.50;99.90
20957;DHT22;10637;47.970;7.830;2023-04-03T08:41:36;9.00;99.90
20957;DHT22;10637;47.970;7.830;2023-04-03T08:46:49;9.00;99.90
20957;DHT22;10637;47.970;7.830;2023-04-03T08:51:56;9.30;99.90
20957;DHT22;10637;47.970;7.830;2023-04-03T08:57:02;9.40;99.90
20957;DHT22;10637;47.970;7.830;2023-04-03T09:02:24;9.40;99.90
20957;DHT22;10637;47.970;7.830;2023-04-03T09:07:47;9.10;98.90
20957;DHT22;10637;47.970;7.830;2023-04-03T09:13:01;8.60;99.50
20957;DHT22;10637;47.970;7.830;2023-04-03T09:23:49;10.00;97.50
20957;DHT22;10637;47.970;7.830;2023-04-03T09:28:55;10.20;97.80
20957;DHT22;10637;47.970;7.830;2023-04-03T09:34:03;11.00;97.60
20957;DHT22;10637;47.970;7.830;2023-04-03T09:39:08;11.00;95.80
20957;DHT22;10637;47.970;7.830;2023-04-03T09:44:21;10.90;94.00
20957;DHT22;10637;47.970;7.830;2023-04-03T09:49:24;11.50;94.10
20957;DHT22;10637;47.970;7.830;2023-04-03T09:54:37;12.40;92.90
20957;DHT22;10637;47.970;7.830;2023-04-03T10:00:01;12.40;91.30
20957;DHT22;10637;47.970;7.830;2023-04-03T10:05:28;11.80;90.70
20957;DHT22;10637;47.970;7.830;2023-04-03T10:10:31;11.40;89.20
20957;DHT22;10637;47.970;7.830;2023-04-03T10:15:42;11.10;91.60
20957;DHT22;10637;47.970;7.830;2023-04-03T10:20:49;11.20;89.80
20957;DHT22;10637;47.970;7.830;2023-04-03T10:26:14;10.90;92.10
20957;DHT22;10637;47.970;7.830;2023-04-03T10:31:36;10.10;92.50
20957;DHT22;10637;47.970;7.830;2023-04-03T10:36:44;9.30;91.10
20957;DHT22;10637;47.970;7.830;2023-04-03T10:47:22;10.10;92.00
20957;DHT22;10637;47.970;7.830;2023-04-03T10:57:34;10.50;92.60
20957;DHT22;10637;47.970;7.830;2023-04-03T11:03:03;10.10;91.30
20957;DHT22;10637;47.970;7.830;2023-04-03T11:08:13;9.70;91.00
20957;DHT22;10637;47.970;7.830;2023-04-03T11:18:43;10.10;92.90
20957;DHT22;10637;47.970;7.830;2023-04-03T11:23:46;10.40;91.70
20957;DHT22;10637;47.970;7.830;2023-04-03T11:28:57;10.70;92.60
20957;DHT22;10637;47.970;7.830;2023-04-03T11:39:22;11.00;91.80
20957;DHT22;10637;47.970;7.830;2023-04-03T11:44:37;10.60;91.90
20957;DHT22;10637;47.970;7.830;2023-04-03T11:49:59;10.80;92.60
20957;DHT22;10637;47.970;7.830;2023-04-03T11:55:02;9.80;92.10
20957;DHT22;10637;47.970;7.830;2023-04-03T12:05:44;10.60;93.10
20957;DHT22;10637;47.970;7.830;2023-04-03T12:32:24;12.10;90.80
20957;DHT22;10637;47.970;7.830;2023-04-03T12:47:51;11.30;91.10
20957;DHT22;10637;47.970;7.830;2023-04-03T12:53:01;11.30;90.30
20957;DHT22;10637;47.970;7.830;2023-04-03T13:03:25;10.80;90.40
20957;DHT22;10637;47.970;7.830;2023-04-03T13:08:29;11.00;91.40
20957;DHT22;10637;47.970;7.830;2023-04-03T13:13:32;10.30;90.60
20957;DHT22;10637;47.970;7.830;2023-04-03T13:18:35;10.70;91.90
20957;DHT22;10637;47.970;7.830;2023-04-03T13:23:41;10.90;91.70
20957;DHT22;10637;47.970;7.830;2023-04-03T13:28:45;11.10;91.90
20957;DHT22;10637;47.970;7.830;2023-04-03T13:34:13;11.20;90.30
20957;DHT22;10637;47.970;7.830;2023-04-03T13:39:23;11.00;90.40
20957;DHT22;10637;47.970;7.830;2023-04-03T13:44:29;11.10;90.10
20957;DHT22;10637;47.970;7.830;2023-04-03T13:49:41;11.40;91.00
20957;DHT22;10637;47.970;7.830;2023-04-03T13:54:46;11.10;90.90
20957;DHT22;10637;47.970;7.830;2023-04-03T13:59:48;10.20;90.50
20957;DHT22;10637;47.970;7.830;2023-04-03T14:04:57;10.60;91.30
20957;DHT22;10637;47.970;7.830;2023-04-03T14:10:02;10.80;91.70
20957;DHT22;10637;47.970;7.830;2023-04-03T14:15:15;10.70;90.90
20957;DHT22;10637;47.970;7.830;2023-04-03T14:20:20;10.50;90.10
20957;DHT22;10637;47.970;7.830;2023-04-03T14:25:23;10.20;92.00
20957;DHT22;10637;47.970;7.830;2023-04-03T14:30:31;10.70;91.40
20957;DHT22;10637;47.970;7.830;2023-04-03T14:35:34;10.70;90.30
20957;DHT22;10637;47.970;7.830;2023-04-03T14:40:35;10.60;90.70
20957;DHT22;10637;47.970;7.830;2023-04-03T14:45:38;10.70;90.40
20957;DHT22;10637;47.970;7.830;2023-04-03T14:50:40;10.80;90.30
20957;DHT22;10637;47.970;7.830;2023-04-03T14:55:55;10.70;90.00
20957;DHT22;10637;47.970;7.830;2023-04-03T15:00:57;10.40;91.40
20957;DHT22;10637;47.970;7.830;2023-04-03T15:05:58;10.60;90.50
20957;DHT22;10637;47.970;7.830;2023-04-03T15:11:00;10.00;90.70
20957;DHT22;10637;47.970;7.830;2023-04-03T15:16:02;10.20;91.30
20957;DHT22;10637;47.970;7.830;2023-04-03T15:21:05;9.90;90.40
20957;DHT22;10637;47.970;7.830;2023-04-03T15:26:07;10.00;90.90
20957;DHT22;10637;47.970;7.830;2023-04-03T15:31:09;10.00;90.20
20957;DHT22;10637;47.970;7.830;2023-04-03T15:36:11;10.00;90.60
20957;DHT22;10637;47.970;7.830;2023-04-03T15:41:17;10.00;90.30
20957;DHT22;10637;47.970;7.830;2023-04-03T15:46:19;10.00;89.70
20957;DHT22;10637;47.970;7.830;2023-04-03T15:51:21;10.10;90.60
20957;DHT22;10637;47.970;7.830;2023-04-03T15:56:23;10.10;90.60
20957;DHT22;10637;47.970;7.830;2023-04-03T16:01:25;9.80;90.30
20957;DHT22;10637;47.970;7.830;2023-04-03T16:06:27;9.70;90.90
20957;DHT22;10637;47.970;7.830;2023-04-03T16:11:31;9.60;90.10
20957;DHT22;10637;47.970;7.830;2023-04-03T16:16:33;9.30;90.10
20957;DHT22;10637;47.970;7.830;2023-04-03T16:21:35;9.20;89.70
20957;DHT22;10637;47.970;7.830;2023-04-03T16:26:36;9.10;90.30
20957;DHT22;10637;47.970;7.830;2023-04-03T16:31:38;9.00;89.70
20957;DHT22;10637;47.970;7.830;2023-04-03T16:36:40;9.10;90.00
20957;DHT22;10637;47.970;7.830;2023-04-03T16:41:42;9.00;88.90
20957;DHT22;10637;47.970;7.830;2023-04-03T16:46:44;9.10;90.00
20957;DHT22;10637;47.970;7.830;2023-04-03T16:51:48;9.00;88.30
20957;DHT22;10637;47.970;7.830;2023-04-03T16:56:50;8.90;89.40
20957;DHT22;10637;47.970;7.830;2023-04-03T17:01:52;8.90;89.90
20957;DHT22;10637;47.970;7.830;2023-04-03T17:06:54;8.80;90.50
20957;DHT22;10637;47.970;7.830;2023-04-03T17:11:56;8.80;90.70
20957;DHT22;10637;47.970;7.830;2023-04-03T17:16:58;8.80;90.80
20957;DHT22;10637;47.970;7.830;2023-04-03T17:22:00;8.60;90.00
20957;DHT22;10637;47.970;7.830;2023-04-03T17:27:03;8.60;91.10
20957;DHT22;10637;47.970;7.830;2023-04-03T17:32:05;8.40;90.30
20957;DHT22;10637;47.970;7.830;2023-04-03T17:37:07;8.60;92.20
20957;DHT22;10637;47.970;7.830;2023-04-03T17:42:09;8.40;91.80
20957;DHT22;10637;47.970;7.830;2023-04-03T17:47:11;8.20;90.90
20957;DHT22;10637;47.970;7.830;2023-04-03T17:52:12;8.10;91.40
20957;DHT22;10637;47.970;7.830;2023-04-03T17:57:14;8.10;91.60
20957;DHT22;10637;47.970;7.830;2023-04-03T18:02:16;7.90;91.80
20957;DHT22;10637;47.970;7.830;2023-04-03T18:07:19;7.90;92.10
20957;DHT22;10637;47.970;7.830;2023-04-03T18:12:21;7.80;91.80
20957;DHT22;10637;47.970;7.830;2023-04-03T18:17:23;7.90;91.90
20957;DHT22;10637;47.970;7.830;2023-04-03T18:22:25;8.00;92.10
20957;DHT22;10637;47.970;7.830;2023-04-03T18:27:27;8.00;91.60
20957;DHT22;10637;47.970;7.830;2023-04-03T18:32:29;7.90;91.50
20957;DHT22;10637;47.970;7.830;2023-04-03T18:37:31;7.90;91.20
20957;DHT22;10637;47.970;7.830;2023-04-03T18:42:33;7.90;91.20
20957;DHT22;10637;47.970;7.830;2023-04-03T18:47:35;7.70;91.60
20957;DHT22;10637;47.970;7.830;2023-04-03T18:52:37;7.70;91.60
20957;DHT22;10637;47.970;7.830;2023-04-03T18:57:39;7.60;92.40
20957;DHT22;10637;47.970;7.830;2023-04-03T19:02:41;7.70;92.10
20957;DHT22;10637;47.970;7.830;2023-04-03T19:07:43;7.60;92.90
20957;DHT22;10637;47.970;7.830;2023-04-03T19:12:46;7.70;92.40
20957;DHT22;10637;47.970;7.830;2023-04-03T19:17:48;7.60;92.10
20957;DHT22;10637;47.970;7.830;2023-04-03T19:22:50;7.70;92.70
20957;DHT22;10637;47.970;7.830;2023-04-03T19:27:52;7.70;93.00
20957;DHT22;10637;47.970;7.830;2023-04-03T19:32:54;7.50;93.00
20957;DHT22;10637;47.970;7.830;2023-04-03T19:37:56;7.50;92.90
20957;DHT22;10637;47.970;7.830;2023-04-03T19:42:58;7.40;93.40
20957;DHT22;10637;47.970;7.830;2023-04-03T19:48:00;7.30;93.50
20957;DHT22;10637;47.970;7.830;2023-04-03T19:53:02;7.10;93.80
20957;DHT22;10637;47.970;7.830;2023-04-03T19:58:04;6.70;93.70
20957;DHT22;10637;47.970;7.830;2023-04-03T20:03:06;6.90;94.10
20957;DHT22;10637;47.970;7.830;2023-04-03T20:08:08;6.70;94.40
20957;DHT22;10637;47.970;7.830;2023-04-03T20:13:10;6.70;94.60
20957;DHT22;10637;47.970;7.830;2023-04-03T20:18:15;6.60;95.80
20957;DHT22;10637;47.970;7.830;2023-04-03T20:23:20;6.40;97.00
20957;DHT22;10637;47.970;7.830;2023-04-03T20:28:23;6.30;96.50
20957;DHT22;10637;47.970;7.830;2023-04-03T20:33:25;6.20;96.90
20957;DHT22;10637;47.970;7.830;2023-04-03T20:38:26;6.10;97.80
20957;DHT22;10637;47.970;7.830;2023-04-03T20:43:28;5.90;98.00
20957;DHT22;10637;47.970;7.830;2023-04-03T20:48:30;5.70;98.30
20957;DHT22;10637;47.970;7.830;2023-04-03T20:53:32;5.60;98.40
20957;DHT22;10637;47.970;7.830;2023-04-03T20:58:36;5.40;98.90
20957;DHT22;10637;47.970;7.830;2023-04-03T21:03:39;5.10;99.30
20957;DHT22;10637;47.970;7.830;2023-04-03T21:20:02;5.20;99.90
20957;DHT22;10637;47.970;7.830;2023-04-03T21:25:04;5.10;99.90
20957;DHT22;10637;47.970;7.830;2023-04-03T21:30:06;5.10;99.90
20957;DHT22;10637;47.970;7.830;2023-04-03T21:35:08;5.00;99.90
20957;DHT22;10637;47.970;7.830;2023-04-03T21:40:10;4.90;99.90
20957;DHT22;10637;47.970;7.830;2023-04-03T21:45:12;4.80;99.90
20957;DHT22;10637;47.970;7.830;2023-04-03T21:50:16;4.60;99.90
20957;DHT22;10637;47.970;7.830;2023-04-03T21:55:19;4.50;99.90
20957;DHT22;10637;47.970;7.830;2023-04-03T22:00:21;4.50;99.90
20957;DHT22;10637;47.970;7.830;2023-04-03T22:05:23;4.50;99.90
20957;DHT22;10637;47.970;7.830;2023-04-03T22:10:25;4.40;99.90
20957;DHT22;10637;47.970;7.830;2023-04-03T22:15:27;4.30;99.90
20957;DHT22;10637;47.970;7.830;2023-04-03T22:20:28;4.10;99.90
20957;DHT22;10637;47.970;7.830;2023-04-03T22:25:31;4.10;99.90
20957;DHT22;10637;47.970;7.830;2023-04-03T22:30:33;3.90;99.90
20957;DHT22;10637;47.970;7.830;2023-04-03T22:35:35;3.80;99.90
20957;DHT22;10637;47.970;7.830;2023-04-03T22:40:36;3.80;99.90
20957;DHT22;10637;47.970;7.830;2023-04-03T22:45:46;3.80;99.90
20957;DHT22;10637;47.970;7.830;2023-04-03T22:50:49;3.90;99.90
20957;DHT22;10637;47.970;7.830;2023-04-03T22:55:56;3.70;99.90
20957;DHT22;10637;47.970;7.830;2023-04-03T23:01:08;3.50;99.90
20957;DHT22;10637;47.970;7.830;2023-04-03T23:06:10;3.50;99.90
20957;DHT22;10637;47.970;7.830;2023-04-03T23:11:13;3.20;99.90
20957;DHT22;10637;47.970;7.830;2023-04-03T23:16:15;3.40;99.90
20957;DHT22;10637;47.970;7.830;2023-04-03T23:21:17;3.00;99.90
20957;DHT22;10637;47.970;7.830;2023-04-03T23:26:19;3.10;99.90
20957;DHT22;10637;47.970;7.830;2023-04-03T23:31:21;3.20;99.90
20957;DHT22;10637;47.970;7.830;2023-04-03T23:36:23;3.10;99.90
20957;DHT22;10637;47.970;7.830;2023-04-03T23:41:25;3.10;99.90
20957;DHT22;10637;47.970;7.830;2023-04-03T23:46:27;3.10;99.90
20957;DHT22;10637;47.970;7.830;2023-04-03T23:51:29;3.00;99.90
20957;DHT22;10637;47.970;7.830;2023-04-03T23:56:30;3.10;99.90
